Time;durP1;ratioP1;P1;durP2;ratioP2;P2;SDS_P1;SDS_P2;PMS_P1;PMS_P2;Temp;Humidity;BMP_temperature;BMP_pressure;BME280_temperature;BME280_humidity;BME280_pressure;Samples;Min_cycle;Max_cycle;Signal;HPM_P1;HPM_P2
2022/01/21 00:01:33;;;;;;;18.02;3.03;;;0.50;99.90;;;;;;5058941;28;20048;-50
2022/01/21 00:04:00;;;;;;;15.23;3.00;;;0.50;99.90;;;;;;5067255;28;20090;-50
2022/01/21 00:06:25;;;;;;;18.00;2.90;;;0.50;99.90;;;;;;5053942;28;20036;-50
2022/01/21 00:08:52;;;;;;;19.83;3.00;;;0.50;99.90;;;;;;5064703;28;20079;-51
2022/01/21 00:11:19;;;;;;;16.65;3.30;;;0.50;99.90;;;;;;5068731;28;20051;-48
2022/01/21 00:13:45;;;;;;;16.70;2.70;;;0.40;99.90;;;;;;5069040;28;20045;-49
2022/01/21 00:16:14;;;;;;;16.45;2.83;;;0.50;99.90;;;;;;5067432;28;20057;-49
2022/01/21 00:18:45;;;;;;;17.42;3.47;;;0.50;99.90;;;;;;5069239;28;20055;-50
2022/01/21 00:32:08;;;;;;;21.35;2.85;;;0.50;99.90;;;;;;5059713;28;20044;-50
2022/01/21 00:34:34;;;;;;;15.98;3.13;;;0.40;99.90;;;;;;5064310;28;20044;-52
2022/01/21 00:37:00;;;;;;;21.48;2.88;;;0.40;99.90;;;;;;5057073;28;20037;-51
2022/01/21 00:39:29;;;;;;;18.70;3.40;;;0.40;99.90;;;;;;5060557;28;20037;-49
2022/01/21 00:42:04;;;;;;;20.85;3.22;;;0.40;99.90;;;;;;5059047;28;20124;-49
2022/01/21 00:44:29;;;;;;;21.38;3.70;;;0.30;99.90;;;;;;5069568;28;20044;-49
2022/01/21 00:46:55;;;;;;;16.27;3.00;;;0.40;99.90;;;;;;5069363;28;20121;-53
2022/01/21 00:49:20;;;;;;;22.60;3.15;;;0.40;99.90;;;;;;5066511;28;20046;-51
2022/01/21 00:51:46;;;;;;;18.05;3.17;;;0.50;99.90;;;;;;5064371;28;20063;-52
2022/01/21 00:54:12;;;;;;;17.73;2.92;;;0.60;99.90;;;;;;5065198;28;20115;-52
2022/01/21 00:56:38;;;;;;;21.42;3.60;;;0.60;99.90;;;;;;5067717;28;20040;-49
2022/01/21 00:59:04;;;;;;;18.65;2.75;;;0.70;99.90;;;;;;5068236;28;20110;-49
2022/01/21 01:01:29;;;;;;;21.85;4.15;;;0.80;99.90;;;;;;5068921;28;20480;-51
2022/01/21 01:03:55;;;;;;;23.50;3.50;;;0.80;99.90;;;;;;5060961;28;20044;-49
2022/01/21 01:06:21;;;;;;;20.08;2.70;;;0.90;99.90;;;;;;5063916;28;20376;-49
2022/01/21 01:08:48;;;;;;;22.77;3.33;;;1.00;99.90;;;;;;5066037;28;20379;-49
2022/01/21 01:11:31;;;;;;;24.55;3.30;;;1.00;99.90;;;;;;5063450;28;20487;-50
2022/01/21 01:22:12;;;;;;;12.48;2.33;;;1.20;99.90;;;;;;5065797;28;20518;-50
2022/01/21 01:30:02;;;;;;;16.55;3.25;;;1.20;99.90;;;;;;5058034;28;20049;-48
2022/01/21 01:32:29;;;;;;;16.73;2.30;;;1.30;99.90;;;;;;5057870;28;20377;-50
2022/01/21 01:34:55;;;;;;;17.87;2.20;;;1.20;99.90;;;;;;5061429;28;20056;-49
2022/01/21 01:37:59;;;;;;;19.08;3.00;;;1.10;99.90;;;;;;5061942;28;20036;-51
2022/01/21 01:49:27;;;;;;;20.35;2.13;;;1.00;99.90;;;;;;5068261;28;20486;-53
2022/01/21 01:51:10;;;;;;;17.67;2.72;;;1.00;99.90;;;;;;5069994;28;20502;-48
2022/01/21 01:53:40;;;;;;;19.58;2.33;;;1.10;99.90;;;;;;5069393;28;20097;-49
2022/01/21 01:56:08;;;;;;;12.02;1.90;;;1.20;99.90;;;;;;5060459;28;20476;-51
2022/01/21 01:58:39;;;;;;;11.82;1.73;;;1.20;99.90;;;;;;5055842;28;20072;-51
2022/01/21 02:01:06;;;;;;;16.65;2.75;;;1.30;99.90;;;;;;5070768;28;20435;-53
2022/01/21 02:03:32;;;;;;;12.20;1.85;;;1.30;99.90;;;;;;5072709;28;20422;-49
2022/01/21 02:05:58;;;;;;;11.50;1.95;;;1.40;99.90;;;;;;5068191;28;20040;-49
2022/01/21 02:08:25;;;;;;;14.48;2.20;;;1.40;99.90;;;;;;5068435;28;20041;-50
2022/01/21 02:10:51;;;;;;;12.52;2.10;;;1.50;99.90;;;;;;5058770;28;20099;-51
2022/01/21 02:13:26;;;;;;;9.52;1.70;;;1.50;99.90;;;;;;5053238;28;20033;-51
2022/01/21 02:16:10;;;;;;;11.70;1.98;;;1.50;99.90;;;;;;5068129;28;20049;-50
2022/01/21 02:21:39;;;;;;;17.85;2.10;;;1.60;99.90;;;;;;5057802;28;20079;-48
2022/01/21 02:24:16;;;;;;;14.68;2.20;;;1.60;99.90;;;;;;5064662;28;20479;-52
2022/01/21 02:26:43;;;;;;;15.03;2.50;;;1.70;99.90;;;;;;5061785;28;20045;-52
2022/01/21 02:29:11;;;;;;;12.57;2.42;;;1.70;99.90;;;;;;5066817;28;20381;-53
2022/01/21 02:31:39;;;;;;;15.20;2.10;;;1.70;99.90;;;;;;5061898;28;20498;-50
2022/01/21 02:34:05;;;;;;;;;;;1.70;99.90;;;;;;5071428;28;20135;-49
2022/01/21 02:36:31;;;;;;;17.48;2.15;;;1.70;99.90;;;;;;5060157;28;20004;-49
2022/01/21 02:38:57;;;;;;;14.20;1.67;;;1.80;99.90;;;;;;5069722;28;20489;-50
2022/01/21 02:41:23;;;;;;;10.77;1.90;;;1.80;99.90;;;;;;5070081;28;20095;-51
2022/01/21 02:43:49;;;;;;;10.48;1.90;;;1.70;99.90;;;;;;5066098;28;20133;-49
2022/01/21 02:46:16;;;;;;;7.28;1.42;;;1.70;99.90;;;;;;5057507;28;20583;-50
2022/01/21 02:48:42;;;;;;;10.90;1.70;;;1.70;99.90;;;;;;5068858;28;20036;-53
2022/01/21 02:51:10;;;;;;;12.77;2.15;;;1.70;99.90;;;;;;5058074;28;20056;-50
2022/01/21 02:56:06;;;;;;;8.02;1.65;;;1.70;99.90;;;;;;5062129;28;19963;-52
2022/01/21 02:58:33;;;;;;;8.68;1.83;;;1.70;99.90;;;;;;5070231;28;20041;-53
2022/01/21 03:00:59;;;;;;;15.85;2.67;;;1.70;99.90;;;;;;5062788;28;20051;-52
2022/01/21 03:03:25;;;;;;;13.55;2.03;;;1.80;99.90;;;;;;5068970;28;20432;-51
2022/01/21 03:05:50;;;;;;;14.30;1.77;;;1.80;99.90;;;;;;5062002;28;20242;-50
2022/01/21 03:08:16;;;;;;;7.40;1.40;;;1.80;99.90;;;;;;5070975;28;20044;-52
2022/01/21 03:10:42;;;;;;;12.75;1.85;;;1.90;99.90;;;;;;5059300;28;20047;-52
2022/01/21 03:13:07;;;;;;;17.02;1.95;;;1.90;99.90;;;;;;5070718;28;20119;-50
2022/01/21 03:15:33;;;;;;;7.88;1.30;;;1.90;99.90;;;;;;5059836;28;20350;-52
2022/01/21 03:17:58;;;;;;;11.00;1.92;;;1.90;99.90;;;;;;5071019;28;20396;-53
2022/01/21 03:20:24;;;;;;;12.40;2.10;;;1.90;99.90;;;;;;5066893;28;20509;-49
2022/01/21 03:22:49;;;;;;;11.70;1.77;;;1.90;99.90;;;;;;5060791;28;20490;-53
2022/01/21 03:25:15;;;;;;;11.88;1.77;;;1.90;99.90;;;;;;5066324;28;20107;-51
2022/01/21 03:27:41;;;;;;;9.85;1.50;;;1.90;99.90;;;;;;5057637;28;20044;-52
2022/01/21 03:30:08;;;;;;;13.52;2.20;;;1.80;99.90;;;;;;5065871;28;20044;-50
2022/01/21 03:32:34;;;;;;;12.30;1.55;;;1.70;99.90;;;;;;5055391;28;20049;-50
2022/01/21 03:34:59;;;;;;;7.05;1.08;;;1.70;99.90;;;;;;5067255;28;20498;-52
2022/01/21 03:37:26;;;;;;;10.02;1.73;;;1.70;99.90;;;;;;5056973;28;20502;-49
2022/01/21 03:39:51;;;;;;;6.85;1.42;;;1.70;99.90;;;;;;5064038;28;20463;-51
2022/01/21 03:42:17;;;;;;;10.85;1.73;;;1.70;99.90;;;;;;5063902;28;20040;-51
2022/01/21 03:44:42;;;;;;;11.63;1.50;;;1.70;99.90;;;;;;5060887;28;20059;-54
2022/01/21 03:47:08;;;;;;;8.30;1.05;;;1.70;99.90;;;;;;5061250;28;20080;-52
2022/01/21 03:49:39;;;;;;;10.85;1.70;;;1.70;99.90;;;;;;5063049;28;20066;-49
2022/01/21 03:52:06;;;;;;;7.95;1.88;;;1.70;99.90;;;;;;5054770;28;20056;-51
2022/01/21 03:54:32;;;;;;;11.68;1.67;;;1.70;99.90;;;;;;5062100;28;20142;-53
2022/01/21 03:56:59;;;;;;;11.70;1.50;;;1.60;99.90;;;;;;5056907;28;20075;-53
2022/01/21 03:59:25;;;;;;;12.05;1.83;;;1.60;99.90;;;;;;5068829;28;20045;-51
2022/01/21 04:01:50;;;;;;;12.65;1.77;;;1.50;99.90;;;;;;5065286;28;20025;-54
2022/01/21 04:04:16;;;;;;;9.63;1.88;;;1.50;99.90;;;;;;5059216;28;20044;-52
2022/01/21 04:06:41;;;;;;;11.93;1.70;;;1.50;99.90;;;;;;5057678;28;20094;-52
2022/01/21 04:09:07;;;;;;;9.15;2.00;;;1.40;99.90;;;;;;5070749;28;20138;-52
2022/01/21 04:11:32;;;;;;;11.52;1.75;;;1.40;99.90;;;;;;5055385;28;20064;-51
2022/01/21 04:13:58;;;;;;;14.75;1.90;;;1.30;99.90;;;;;;5060746;28;20132;-49
2022/01/21 04:16:24;;;;;;;11.07;1.70;;;1.30;99.90;;;;;;5061885;28;20040;-53
2022/01/21 04:18:49;;;;;;;11.02;1.45;;;1.30;99.90;;;;;;5054574;28;20056;-50
2022/01/21 04:21:15;;;;;;;12.52;1.60;;;1.20;99.90;;;;;;5068384;28;20045;-52
2022/01/21 04:23:40;;;;;;;10.18;1.77;;;1.20;99.90;;;;;;5058664;28;20049;-51
2022/01/21 04:26:06;;;;;;;9.68;1.63;;;1.20;99.90;;;;;;5058014;28;20059;-49
2022/01/21 04:28:31;;;;;;;10.13;1.33;;;1.20;99.90;;;;;;5066358;28;20068;-50
2022/01/21 04:30:58;;;;;;;14.70;2.33;;;1.20;99.90;;;;;;5064754;28;20059;-50
2022/01/21 04:33:23;;;;;;;13.98;2.30;;;1.20;99.90;;;;;;5061604;28;20044;-53
2022/01/21 04:35:49;;;;;;;14.70;1.88;;;1.10;99.90;;;;;;5054663;28;20041;-53
2022/01/21 04:38:18;;;;;;;9.13;1.70;;;1.10;99.90;;;;;;5060887;28;20355;-51
2022/01/21 04:41:18;;;;;;;9.02;1.83;;;1.20;99.90;;;;;;5062978;28;20040;-51
2022/01/21 04:49:01;;;;;;;12.55;1.70;;;1.00;99.90;;;;;;5060245;28;20062;-52
2022/01/21 04:51:29;;;;;;;9.98;1.90;;;1.00;99.90;;;;;;5066066;28;20562;-53
2022/01/21 04:53:55;;;;;;;11.45;2.00;;;1.00;99.90;;;;;;5063093;28;20406;-54
2022/01/21 04:56:21;;;;;;;13.38;2.10;;;0.90;99.90;;;;;;5057851;28;20045;-47
2022/01/21 04:58:47;;;;;;;12.75;2.15;;;0.90;99.90;;;;;;5063129;28;20029;-54
2022/01/21 05:01:13;;;;;;;12.02;2.03;;;0.80;99.90;;;;;;5058314;28;20041;-52
2022/01/21 05:03:41;;;;;;;15.07;2.65;;;0.80;99.90;;;;;;5056707;28;20156;-49
2022/01/21 05:06:07;;;;;;;10.02;2.17;;;0.80;99.90;;;;;;5070623;28;20086;-49
2022/01/21 05:08:42;;;;;;;13.63;2.35;;;0.80;99.90;;;;;;5067016;28;20409;-50
2022/01/21 05:11:09;;;;;;;11.25;1.80;;;0.80;99.90;;;;;;5057072;28;20052;-49
2022/01/21 05:13:40;;;;;;;19.98;2.55;;;0.80;99.90;;;;;;5056926;28;20432;-53
2022/01/21 05:16:29;;;;;;;14.98;2.47;;;0.80;99.90;;;;;;5064213;28;20052;-49
2022/01/21 05:18:56;;;;;;;14.77;2.53;;;0.80;99.90;;;;;;5059353;28;20036;-54
2022/01/21 05:21:22;;;;;;;17.92;2.38;;;0.90;99.90;;;;;;5069698;28;20154;-49
2022/01/21 05:23:47;;;;;;;17.65;2.10;;;0.90;99.90;;;;;;5067902;28;20060;-49
2022/01/21 05:26:13;;;;;;;15.30;2.10;;;0.90;99.90;;;;;;5057544;28;20548;-50
2022/01/21 05:28:39;;;;;;;13.38;2.13;;;0.90;99.90;;;;;;5063235;28;20441;-51
2022/01/21 05:31:04;;;;;;;13.85;2.10;;;0.80;99.90;;;;;;5064444;28;20530;-50
2022/01/21 05:33:30;;;;;;;11.57;2.20;;;0.80;99.90;;;;;;5066400;28;20051;-51
2022/01/21 05:35:55;;;;;;;14.13;2.40;;;0.80;99.90;;;;;;5067737;28;20036;-51
2022/01/21 05:38:21;;;;;;;15.65;2.42;;;0.80;99.90;;;;;;5055995;28;20419;-53
2022/01/21 05:40:47;;;;;;;11.55;2.00;;;0.70;99.90;;;;;;5058812;28;20044;-49
2022/01/21 05:43:13;;;;;;;14.88;2.20;;;0.70;99.90;;;;;;5071197;28;20071;-53
2022/01/21 05:48:23;;;;;;;14.75;2.50;;;0.70;99.90;;;;;;5066957;28;20136;-52
2022/01/21 05:50:49;;;;;;;9.25;1.58;;;0.70;99.90;;;;;;5064006;28;20044;-53
2022/01/21 05:53:14;;;;;;;10.20;1.98;;;0.70;99.90;;;;;;5070145;28;20054;-52
2022/01/21 05:55:42;;;;;;;15.15;2.05;;;0.70;99.90;;;;;;5079140;28;20486;-52
2022/01/21 05:58:15;;;;;;;13.50;1.77;;;0.70;99.90;;;;;;5057474;28;20045;-53
2022/01/21 06:00:43;;;;;;;6.72;1.75;;;0.80;99.90;;;;;;5072075;28;20044;-50
2022/01/21 06:03:08;;;;;;;13.52;1.58;;;0.70;99.90;;;;;;5070828;28;20532;-53
2022/01/21 06:05:34;;;;;;;16.13;2.47;;;0.80;99.90;;;;;;5069396;28;20053;-50
2022/01/21 06:08:01;;;;;;;14.50;2.10;;;0.80;99.90;;;;;;5071934;28;20047;-50
2022/01/21 06:10:27;;;;;;;13.88;1.80;;;0.80;99.90;;;;;;5061439;28;20490;-48
2022/01/21 06:12:53;;;;;;;11.98;2.35;;;0.80;99.90;;;;;;5054355;28;20454;-51
2022/01/21 06:15:19;;;;;;;14.13;2.17;;;0.80;99.90;;;;;;5064487;28;20051;-52
2022/01/21 06:17:45;;;;;;;20.30;1.85;;;0.80;99.90;;;;;;5069021;28;20490;-54
2022/01/21 06:20:47;;;;;;;18.25;1.92;;;0.70;99.90;;;;;;5069551;28;20098;-50
2022/01/21 06:23:13;;;;;;;14.65;1.60;;;0.70;99.90;;;;;;5061723;28;20505;-47
2022/01/21 06:25:39;;;;;;;11.90;1.90;;;0.70;99.90;;;;;;5067543;28;20052;-48
2022/01/21 06:28:05;;;;;;;18.48;1.80;;;0.70;99.90;;;;;;5069458;28;20247;-48
2022/01/21 06:30:31;;;;;;;10.77;1.58;;;0.70;99.90;;;;;;5063669;28;20430;-47
2022/01/21 06:32:56;;;;;;;8.60;1.52;;;0.70;99.90;;;;;;5066861;28;20374;-49
2022/01/21 06:35:22;;;;;;;11.95;2.40;;;0.80;99.90;;;;;;5064543;28;20098;-50
2022/01/21 06:37:47;;;;;;;11.48;1.90;;;0.90;99.90;;;;;;5057521;28;20048;-53
2022/01/21 06:40:15;;;;;;;12.30;1.73;;;0.90;99.90;;;;;;5060536;28;20097;-51
2022/01/21 06:42:41;;;;;;;16.50;2.28;;;1.00;99.90;;;;;;5070763;28;20123;-52
2022/01/21 06:45:07;;;;;;;9.82;1.95;;;1.00;99.90;;;;;;5057554;28;20110;-52
2022/01/21 06:47:33;;;;;;;12.98;1.65;;;1.00;99.90;;;;;;5063489;28;20087;-53
2022/01/21 06:49:59;;;;;;;11.88;1.83;;;1.10;99.90;;;;;;5061559;28;20072;-50
2022/01/21 06:52:27;;;;;;;13.00;2.33;;;1.10;99.90;;;;;;5062284;28;20453;-50
2022/01/21 06:54:52;;;;;;;16.50;2.03;;;1.10;99.90;;;;;;5060244;28;20095;-48
2022/01/21 06:57:18;;;;;;;15.80;2.55;;;1.20;99.90;;;;;;5054620;28;20045;-48
2022/01/21 06:59:43;;;;;;;15.32;2.03;;;1.20;99.90;;;;;;5063770;28;20048;-51
2022/01/21 07:02:09;;;;;;;17.70;2.50;;;1.20;99.90;;;;;;5060974;28;20091;-52
2022/01/21 07:04:34;;;;;;;12.43;1.88;;;1.20;99.90;;;;;;5061406;28;20037;-50
2022/01/21 07:07:01;;;;;;;8.85;1.88;;;1.30;99.90;;;;;;5075136;28;20035;-49
2022/01/21 07:09:27;;;;;;;15.75;2.00;;;1.20;99.90;;;;;;5071479;28;20036;-51
2022/01/21 07:11:53;;;;;;;10.52;2.58;;;1.10;99.90;;;;;;5061212;28;20047;-51
2022/01/21 07:14:20;;;;;;;13.13;2.38;;;1.10;99.90;;;;;;5051745;28;20486;-49
2022/01/21 07:16:47;;;;;;;13.90;2.03;;;1.00;99.90;;;;;;5064605;28;20057;-50
2022/01/21 07:19:13;;;;;;;13.23;2.20;;;1.00;99.90;;;;;;5059048;28;20143;-53
2022/01/21 07:21:39;;;;;;;13.65;1.83;;;1.00;99.90;;;;;;5065012;28;20363;-51
2022/01/21 07:24:05;;;;;;;16.38;2.33;;;1.00;99.90;;;;;;5067541;28;20109;-53
2022/01/21 07:26:31;;;;;;;11.60;2.38;;;1.00;99.90;;;;;;5058625;28;20041;-52
2022/01/21 07:28:56;;;;;;;11.40;2.30;;;1.10;99.90;;;;;;5056046;28;20033;-49
2022/01/21 07:31:22;;;;;;;10.77;2.70;;;1.10;99.90;;;;;;5057895;28;20060;-51
2022/01/21 07:33:48;;;;;;;14.02;2.20;;;1.20;99.90;;;;;;5064832;28;20059;-51
2022/01/21 07:36:14;;;;;;;14.23;2.53;;;1.30;99.90;;;;;;5060045;28;20040;-47
2022/01/21 07:38:41;;;;;;;10.85;2.00;;;1.20;99.90;;;;;;5062562;28;20053;-51
2022/01/21 07:41:07;;;;;;;8.10;1.77;;;1.20;99.90;;;;;;5055380;28;20057;-47
2022/01/21 07:43:32;;;;;;;12.30;1.92;;;1.20;99.90;;;;;;5059045;28;20449;-52
2022/01/21 07:45:58;;;;;;;16.13;2.28;;;1.20;99.90;;;;;;5065021;28;20065;-52
2022/01/21 07:48:24;;;;;;;11.27;1.98;;;1.20;99.90;;;;;;5065872;28;20490;-50
2022/01/21 07:50:49;;;;;;;15.00;1.90;;;1.20;99.90;;;;;;5056639;28;20491;-50
2022/01/21 07:53:15;;;;;;;16.85;2.50;;;1.20;99.90;;;;;;5064109;28;20048;-49
2022/01/21 07:55:40;;;;;;;14.90;2.00;;;1.20;99.90;;;;;;5066945;28;20033;-49
2022/01/21 07:58:06;;;;;;;13.80;1.98;;;1.20;99.90;;;;;;5056496;28;20056;-53
2022/01/21 08:00:32;;;;;;;15.48;2.85;;;1.20;99.90;;;;;;5059598;28;20493;-52
2022/01/21 08:02:58;;;;;;;13.90;2.47;;;1.20;99.90;;;;;;5057191;28;20426;-52
2022/01/21 08:05:28;;;;;;;15.20;2.10;;;1.20;99.90;;;;;;5069027;28;20120;-50
2022/01/21 08:07:53;;;;;;;16.55;2.65;;;1.20;99.90;;;;;;5065777;28;20056;-51
2022/01/21 08:10:19;;;;;;;12.48;2.40;;;1.10;99.90;;;;;;5066648;28;20097;-50
2022/01/21 08:12:44;;;;;;;13.32;2.25;;;1.10;99.90;;;;;;5059829;28;20056;-50
2022/01/21 08:15:10;;;;;;;17.98;2.15;;;1.10;99.90;;;;;;5062259;28;20068;-51
2022/01/21 08:17:35;;;;;;;14.25;2.47;;;1.10;99.90;;;;;;5065822;28;20048;-53
2022/01/21 08:20:01;;;;;;;11.07;2.03;;;1.10;99.90;;;;;;5058003;28;20048;-53
2022/01/21 08:22:27;;;;;;;11.60;3.05;;;1.10;99.90;;;;;;5056341;28;20068;-53
2022/01/21 08:24:53;;;;;;;15.55;2.50;;;1.10;99.90;;;;;;5057608;28;20040;-53
2022/01/21 08:27:18;;;;;;;15.07;2.17;;;1.10;99.90;;;;;;5059357;28;20037;-51
2022/01/21 08:29:44;;;;;;;15.00;2.28;;;1.10;99.90;;;;;;5062248;28;20054;-51
2022/01/21 08:32:10;;;;;;;14.20;2.00;;;1.10;99.90;;;;;;5065729;28;20033;-51
2022/01/21 08:34:36;;;;;;;11.38;2.47;;;1.20;99.90;;;;;;5057784;28;20080;-53
2022/01/21 08:37:03;;;;;;;13.63;2.65;;;1.20;99.90;;;;;;5062152;28;20041;-49
2022/01/21 08:39:29;;;;;;;14.52;2.47;;;1.30;99.90;;;;;;5064324;28;20072;-53
2022/01/21 08:41:55;;;;;;;12.48;2.83;;;1.50;99.90;;;;;;5062276;28;20113;-48
2022/01/21 08:44:20;;;;;;;14.70;2.35;;;1.60;99.90;;;;;;5063318;28;20064;-50
2022/01/21 08:46:46;;;;;;;15.43;2.15;;;1.70;99.90;;;;;;5061486;28;21290;-48
2022/01/21 08:49:11;;;;;;;15.77;2.10;;;1.70;99.90;;;;;;5057375;28;20041;-51
2022/01/21 08:51:50;;;;;;;10.63;2.47;;;1.70;99.90;;;;;;5059910;28;20041;-52
2022/01/21 08:54:16;;;;;;;15.00;2.92;;;1.70;99.90;;;;;;5063213;28;20098;-50
2022/01/21 08:56:43;;;;;;;17.10;2.50;;;1.70;99.90;;;;;;5063454;28;20048;-50
2022/01/21 08:59:09;;;;;;;13.83;2.30;;;1.60;99.90;;;;;;5062462;28;20029;-53
2022/01/21 09:01:35;;;;;;;14.35;1.80;;;1.70;99.90;;;;;;5070659;28;20059;-52
2022/01/21 09:04:00;;;;;;;16.65;2.22;;;1.70;99.90;;;;;;5072903;28;20040;-51
2022/01/21 09:06:28;;;;;;;11.93;1.92;;;1.80;99.90;;;;;;5068473;28;20045;-47
2022/01/21 09:08:58;;;;;;;12.73;1.90;;;1.80;99.90;;;;;;5060095;28;20398;-49
2022/01/21 09:11:23;;;;;;;11.38;2.70;;;1.90;99.90;;;;;;5073939;28;20510;-50
2022/01/21 09:13:50;;;;;;;15.30;2.35;;;2.10;99.90;;;;;;5062999;28;20049;-47
2022/01/21 09:16:17;;;;;;;13.50;2.75;;;2.30;99.90;;;;;;5069185;28;20048;-49
2022/01/21 09:18:51;;;;;;;13.90;2.70;;;2.50;99.90;;;;;;5066315;28;20077;-47
2022/01/21 09:21:19;;;;;;;12.45;2.85;;;2.60;99.90;;;;;;5071342;28;20112;-49
2022/01/21 09:23:49;;;;;;;14.82;2.85;;;2.70;99.90;;;;;;5073909;28;20048;-47
2022/01/21 09:26:16;;;;;;;15.10;2.88;;;2.90;99.90;;;;;;5074246;28;20074;-50
2022/01/21 09:28:42;;;;;;;14.20;2.47;;;2.90;99.90;;;;;;5069818;28;20047;-47
2022/01/21 09:31:08;;;;;;;9.98;2.13;;;2.90;99.90;;;;;;5074313;28;20049;-52
2022/01/21 09:33:34;;;;;;;13.68;2.60;;;2.90;99.90;;;;;;5072907;28;20115;-50
2022/01/21 09:35:59;;;;;;;12.00;2.13;;;2.90;99.90;;;;;;5061457;28;20086;-51
2022/01/21 09:38:26;;;;;;;18.20;2.92;;;3.00;99.90;;;;;;5074610;28;20417;-49
2022/01/21 09:40:53;;;;;;;19.83;3.30;;;3.00;99.90;;;;;;5073740;28;20055;-50
2022/01/21 09:43:20;;;;;;;15.60;3.20;;;3.00;99.90;;;;;;5072209;28;20348;-50
2022/01/21 09:45:52;;;;;;;13.23;2.80;;;3.10;99.90;;;;;;5069110;28;20524;-50
2022/01/21 09:48:25;;;;;;;16.27;2.80;;;3.10;99.90;;;;;;5073111;28;20036;-49
2022/01/21 09:50:56;;;;;;;13.88;2.60;;;3.30;99.90;;;;;;5073619;28;20496;-50
2022/01/21 09:53:29;;;;;;;13.73;2.72;;;3.30;99.90;;;;;;5074201;28;20127;-48
2022/01/21 09:55:57;;;;;;;15.50;2.75;;;3.40;99.90;;;;;;5074197;28;20037;-50
2022/01/21 09:58:23;;;;;;;16.35;3.10;;;3.50;99.90;;;;;;5072360;28;20037;-48
2022/01/21 10:00:49;;;;;;;16.67;2.65;;;3.50;99.90;;;;;;5072392;28;20125;-49
2022/01/21 10:03:15;;;;;;;18.23;2.90;;;3.60;99.90;;;;;;5073563;28;20443;-47
2022/01/21 10:05:46;;;;;;;18.00;2.67;;;3.70;99.90;;;;;;5072505;28;20045;-50
2022/01/21 10:08:13;;;;;;;13.98;2.42;;;3.80;99.90;;;;;;5072705;28;20490;-48
2022/01/21 10:10:43;;;;;;;10.52;2.55;;;3.90;99.90;;;;;;5073077;28;20082;-50
2022/01/21 10:13:09;;;;;;;17.40;2.78;;;4.00;99.90;;;;;;5072823;28;20048;-49
2022/01/21 10:15:37;;;;;;;18.60;2.50;;;4.00;99.90;;;;;;5069494;28;20059;-49
2022/01/21 10:18:22;;;;;;;14.88;2.75;;;4.00;99.90;;;;;;5072383;28;20041;-48
2022/01/21 10:21:04;;;;;;;13.40;2.53;;;4.00;99.90;;;;;;5072183;28;20105;-49
2022/01/21 10:23:33;;;;;;;16.77;2.83;;;4.10;99.90;;;;;;5062768;28;20041;-49
2022/01/21 10:26:05;;;;;;;14.07;2.60;;;4.10;99.90;;;;;;5072297;28;20036;-48
2022/01/21 10:28:32;;;;;;;15.80;2.97;;;;;;;;;;5073034;28;20044;-48
2022/01/21 10:31:27;;;;;;;12.55;2.70;;;;;;;;;;5070144;28;20123;-50
2022/01/21 10:33:54;;;;;;;16.40;2.78;;;;;;;;;;5054729;28;20067;-49
2022/01/21 10:36:26;;;;;;;22.88;2.97;;;;;;;;;;5073145;28;20041;-50
2022/01/21 10:38:56;;;;;;;16.60;2.65;;;;;;;;;;5065587;28;20041;-49
2022/01/21 10:41:29;;;;;;;12.70;2.33;;;;;;;;;;5072934;28;20044;-51
2022/01/21 10:44:06;;;;;;;15.05;2.60;;;;;;;;;;5071139;28;20053;-49
2022/01/21 10:46:33;;;;;;;12.50;2.30;;;;;;;;;;5072200;28;20080;-50
2022/01/21 10:49:00;;;;;;;11.05;2.20;;;;;;;;;;5065019;28;20040;-53
2022/01/21 10:51:28;;;;;;;12.45;2.22;;;;;;;;;;5059862;28;20056;-51
2022/01/21 10:53:55;;;;;;;8.38;2.15;;;;;;;;;;5070440;28;20099;-49
2022/01/21 10:56:22;;;;;;;9.93;2.03;;;;;;;;;;5084426;28;20032;-48
2022/01/21 10:58:51;;;;;;;12.38;1.98;;;;;;;;;;5071923;28;20052;-50
2022/01/21 11:01:18;;;;;;;12.73;2.03;;;;;;;;;;5063428;28;20072;-48
2022/01/21 11:04:01;;;;;;;10.07;1.75;;;;;;;;;;5070088;28;20045;-48
2022/01/21 11:06:33;;;;;;;12.35;2.10;;;;;;;;;;5072116;28;20047;-47
2022/01/21 11:09:32;;;;;;;8.13;2.40;;;;;;;;;;5071175;28;20106;-49
2022/01/21 11:12:07;;;;;;;7.57;1.90;;;;;;;;;;5070170;28;20045;-48
2022/01/21 11:14:34;;;;;;;12.10;2.15;;;;;;;;;;5062056;28;20084;-48
2022/01/21 11:17:15;;;;;;;16.02;2.40;;;5.30;99.90;;;;;;5062574;28;20143;-49
2022/01/21 11:19:59;;;;;;;9.40;2.60;;;5.40;99.90;;;;;;5057275;28;20098;-48
2022/01/21 11:22:24;;;;;;;13.25;2.58;;;5.50;99.90;;;;;;5069277;28;20041;-49
2022/01/21 11:24:50;;;;;;;12.32;3.20;;;5.60;99.90;;;;;;5058267;28;20384;-51
2022/01/21 11:27:17;;;;;;;17.08;2.80;;;5.60;99.90;;;;;;5068845;28;20406;-49
2022/01/21 11:29:45;;;;;;;16.13;3.38;;;5.70;99.90;;;;;;5069371;28;20042;-49
2022/01/21 11:32:12;;;;;;;20.27;3.22;;;5.60;99.90;;;;;;5064713;28;20043;-49
2022/01/21 11:34:38;;;;;;;17.98;3.30;;;5.70;99.90;;;;;;5066282;28;20037;-50
2022/01/21 11:37:06;;;;;;;17.98;3.05;;;5.50;99.90;;;;;;5067814;28;20047;-51
2022/01/21 11:39:33;;;;;;;14.32;2.92;;;5.50;99.90;;;;;;5062853;28;20128;-52
2022/01/21 11:42:01;;;;;;;18.73;3.00;;;5.40;99.90;;;;;;5062732;28;20050;-52
2022/01/21 11:44:28;;;;;;;18.27;3.10;;;5.30;99.90;;;;;;5055953;28;20052;-50
2022/01/21 11:47:13;;;;;;;17.80;3.05;;;5.40;99.90;;;;;;5074967;28;20044;-48
2022/01/21 11:49:57;;;;;;;21.40;3.45;;;5.40;99.90;;;;;;5067676;28;20097;-50
2022/01/21 11:52:23;;;;;;;21.52;3.50;;;5.40;99.90;;;;;;5066239;28;20128;-51
2022/01/21 11:54:49;;;;;;;18.75;3.45;;;5.50;99.90;;;;;;5070139;28;20123;-48
2022/01/21 11:57:16;;;;;;;20.50;3.92;;;5.50;99.90;;;;;;5071325;28;20055;-49
2022/01/21 12:00:27;;;;;;;19.52;3.83;;;5.60;99.90;;;;;;5065800;28;20126;-52
2022/01/21 12:02:35;;;;;;;24.52;3.83;;;5.70;99.90;;;;;;5056088;28;20048;-53
2022/01/21 12:05:06;;;;;;;21.42;4.20;;;5.80;99.90;;;;;;5065756;28;20043;-48
2022/01/21 12:07:35;;;;;;;21.60;4.13;;;5.90;99.90;;;;;;5068381;28;20067;-48
2022/01/21 12:10:02;;;;;;;16.92;3.47;;;5.90;99.90;;;;;;5064975;28;20040;-48
2022/01/21 12:12:52;;;;;;;20.08;4.20;;;6.00;99.90;;;;;;5068490;28;20052;-49
2022/01/21 12:15:23;;;;;;;18.42;3.90;;;6.10;99.90;;;;;;5065711;28;20439;-48
2022/01/21 12:17:55;;;;;;;24.08;4.03;;;6.20;99.90;;;;;;5057602;28;20032;-48
2022/01/21 12:20:35;;;;;;;19.10;3.63;;;6.20;99.90;;;;;;5063217;28;20461;-49
2022/01/21 12:23:17;;;;;;;17.67;3.65;;;6.30;99.90;;;;;;5066360;28;20036;-49
2022/01/21 12:26:21;;;;;;;15.60;3.45;;;6.30;99.90;;;;;;5054010;28;20076;-49
2022/01/21 12:29:12;;;;;;;21.52;3.78;;;6.30;99.90;;;;;;5065421;28;20049;-49
2022/01/21 12:31:48;;;;;;;17.15;3.30;;;6.30;99.90;;;;;;5066951;28;20048;-50
2022/01/21 12:34:16;;;;;;;16.83;3.25;;;6.30;99.90;;;;;;5071846;28;20567;-49
2022/01/21 12:36:48;;;;;;;14.00;3.28;;;6.40;99.90;;;;;;5064586;28;20466;-50
2022/01/21 12:39:39;;;;;;;18.17;3.38;;;6.40;99.90;;;;;;5070774;28;20155;-52
2022/01/21 12:42:27;;;;;;;18.60;2.97;;;6.40;99.90;;;;;;5066396;28;20106;-52
2022/01/21 12:44:55;;;;;;;12.02;2.78;;;6.40;99.90;;;;;;5068361;28;20047;-47
2022/01/21 12:47:30;;;;;;;17.30;3.42;;;6.50;99.90;;;;;;5071362;28;20387;-49
2022/01/21 12:49:58;;;;;;;15.55;2.85;;;6.50;99.90;;;;;;5062347;28;20045;-47
2022/01/21 12:52:45;;;;;;;13.13;2.70;;;6.50;99.90;;;;;;5059861;28;20418;-48
2022/01/21 12:58:23;;;;;;;14.95;2.38;;;6.60;99.90;;;;;;5071059;28;20044;-47
2022/01/21 13:01:03;;;;;;;17.02;2.83;;;6.60;99.90;;;;;;5067648;28;20452;-48
2022/01/21 13:03:50;;;;;;;16.48;2.63;;;6.70;99.90;;;;;;5059790;28;20406;-47
2022/01/21 13:06:19;;;;;;;10.32;1.85;;;6.70;99.90;;;;;;5065396;28;20060;-52
2022/01/21 13:09:05;;;;;;;12.55;2.03;;;6.70;99.90;;;;;;5060295;28;20131;-48
2022/01/21 13:11:33;;;;;;;13.95;2.40;;;6.70;99.90;;;;;;5067098;28;20049;-48
2022/01/21 13:17:05;;;;;;;14.05;3.22;;;6.70;99.90;;;;;;5073231;28;20067;-47
2022/01/21 13:19:52;;;;;;;11.40;2.00;;;6.70;99.90;;;;;;5064995;28;20112;-50
2022/01/21 13:22:28;;;;;;;15.25;2.13;;;6.70;99.90;;;;;;5072470;28;20070;-51
2022/01/21 13:25:06;;;;;;;10.88;2.13;;;6.60;99.90;;;;;;5061196;28;20041;-47
2022/01/21 13:27:46;;;;;;;9.55;1.85;;;6.60;99.90;;;;;;5067018;28;20080;-48
2022/01/21 13:30:14;;;;;;;10.30;1.70;;;6.60;99.90;;;;;;5054705;28;20051;-49
2022/01/21 13:32:40;;;;;;;12.57;1.98;;;6.60;99.90;;;;;;5064455;28;20364;-48
2022/01/21 13:35:24;;;;;;;12.15;2.00;;;6.60;99.90;;;;;;5068824;28;20056;-48
2022/01/21 13:38:21;;;;;;;11.63;2.40;;;6.60;99.90;;;;;;5063514;28;20052;-48
2022/01/21 13:40:54;;;;;;;13.60;2.38;;;6.60;99.90;;;;;;5055928;28;20477;-48
2022/01/21 13:43:28;;;;;;;8.18;1.73;;;6.70;99.90;;;;;;5068881;28;20089;-49
2022/01/21 13:46:09;;;;;;;10.50;2.20;;;6.70;99.90;;;;;;5056062;28;20655;-51
2022/01/21 13:48:36;;;;;;;9.95;1.67;;;6.70;99.90;;;;;;5068859;28;20040;-49
2022/01/21 13:51:06;;;;;;;10.13;1.92;;;6.70;99.90;;;;;;5066325;28;20044;-48
2022/01/21 13:53:31;;;;;;;14.60;2.08;;;6.70;99.90;;;;;;5062968;28;20052;-50
2022/01/21 13:55:59;;;;;;;16.02;2.72;;;6.70;99.90;;;;;;5069295;28;20040;-53